首页
METAR-TAF:

METAR-TAF

机场 :

姆班扎剛果, 安哥拉

纬度: 6-16-15S, 经度: 14-14-50E, 海拔: 567米

METAR: 丢失

时间: 12:38 (11:38 UTC)

预报

该预报发布于12小时和38分钟前的23:00 UTC
预报有效从23日的 00点(UTC)到 23日的 12点(UTC)
风速4节,风向南转西南
能見度: 9000
多云层高于2200英尺

TAF: FNBC 222300Z 2300/2312 21004KT 9000 BKN022

超过4000个机场的气象观测和天气预报(METAR&TAF报告)。

可查询的气象台以黄色和红色小点在地图上表示。

将鼠标移到小点上方,可查看气象台名称。

然后点击查看天气观测和预报。

如需切换地图:点击带黑十字的绿色按钮放大地图;点击带横线的绿色按钮缩小地图;或者点击绿色箭头查看邻近地区的地图。


METAR-TAF: